Time;durP1;ratioP1;P1;durP2;ratioP2;P2;SDS_P1;SDS_P2;PMS_P1;PMS_P2;Temp;Humidity;BMP_temperature;BMP_pressure;BME280_temperature;BME280_humidity;BME280_pressure;Samples;Min_cycle;Max_cycle;Signal;HPM_P1;HPM_P2
2023/03/10 00:00:55;;;;;;;26.07;12.43;;;0.50;99.90;;;;;;5021923;28;20378;-71
2023/03/10 00:03:21;;;;;;;24.93;11.87;;;0.50;99.90;;;;;;5039876;28;20040;-71
2023/03/10 00:05:53;;;;;;;24.73;11.80;;;0.50;99.90;;;;;;4985847;28;20052;-71
2023/03/10 00:08:18;;;;;;;23.03;11.90;;;0.50;99.90;;;;;;5009956;28;20542;-71
2023/03/10 00:10:45;;;;;;;25.33;12.20;;;0.50;99.90;;;;;;5013075;28;20144;-71
2023/03/10 00:13:12;;;;;;;24.05;11.95;;;0.50;99.90;;;;;;5015325;28;20053;-71
2023/03/10 00:15:38;;;;;;;23.47;11.13;;;0.50;99.90;;;;;;4991113;28;20102;-71
2023/03/10 00:18:04;;;;;;;23.63;10.73;;;0.60;99.90;;;;;;5008043;28;20095;-71
2023/03/10 00:20:29;;;;;;;23.13;11.40;;;0.60;99.90;;;;;;5045580;28;20141;-71
2023/03/10 00:22:55;;;;;;;22.80;11.23;;;0.60;99.90;;;;;;4991941;28;20037;-71
2023/03/10 00:25:21;;;;;;;24.50;11.43;;;0.50;99.90;;;;;;5020157;28;20482;-71
2023/03/10 00:27:46;;;;;;;23.67;11.33;;;0.60;99.90;;;;;;5009459;28;20042;-71
2023/03/10 00:30:13;;;;;;;21.20;10.87;;;0.60;99.90;;;;;;5032246;28;20038;-71
2023/03/10 00:32:39;;;;;;;22.95;12.20;;;0.60;99.90;;;;;;5000007;28;20037;-71
2023/03/10 00:35:06;;;;;;;24.33;11.63;;;0.60;99.90;;;;;;5036462;28;20052;-71
2023/03/10 00:37:34;;;;;;;22.83;11.93;;;0.60;99.90;;;;;;5011922;28;20106;-71
2023/03/10 00:40:00;;;;;;;23.55;11.48;;;0.60;99.90;;;;;;5014934;28;20092;-71
2023/03/10 00:42:25;;;;;;;18.83;10.07;;;0.60;99.90;;;;;;5017116;28;20464;-71
2023/03/10 00:44:51;;;;;;;20.63;10.43;;;0.60;99.90;;;;;;5023321;28;20041;-71
2023/03/10 00:47:17;;;;;;;19.57;10.40;;;0.60;99.90;;;;;;5034316;28;20044;-71
2023/03/10 00:49:43;;;;;;;20.17;9.73;;;0.60;99.90;;;;;;5022172;28;20076;-71
2023/03/10 00:52:08;;;;;;;20.13;11.23;;;0.60;99.90;;;;;;5023488;28;20072;-71
2023/03/10 00:54:37;;;;;;;20.07;10.30;;;0.60;99.90;;;;;;5003157;28;20072;-71
2023/03/10 00:57:03;;;;;;;20.70;10.52;;;0.60;99.90;;;;;;5018258;28;20045;-71
2023/03/10 00:59:29;;;;;;;18.65;10.57;;;0.60;99.90;;;;;;4981035;28;20055;-71
2023/03/10 01:02:00;;;;;;;19.27;10.00;;;0.60;99.90;;;;;;5016669;28;20191;-71
2023/03/10 01:04:26;;;;;;;19.43;10.27;;;0.60;99.90;;;;;;5012321;28;20167;-71
2023/03/10 01:06:51;;;;;;;20.20;10.47;;;0.60;99.90;;;;;;5026453;28;20048;-71
2023/03/10 01:09:17;;;;;;;19.90;11.17;;;0.60;99.90;;;;;;5019828;28;20064;-71
2023/03/10 01:11:43;;;;;;;18.90;10.43;;;0.60;99.90;;;;;;5031619;28;20142;-71
2023/03/10 01:14:16;;;;;;;19.43;10.47;;;0.60;99.90;;;;;;5025883;28;20140;-71
2023/03/10 01:16:43;;;;;;;22.48;12.05;;;0.60;99.90;;;;;;5018933;28;20110;-71
2023/03/10 01:19:14;;;;;;;20.65;11.23;;;0.60;99.90;;;;;;5012187;28;20048;-71
2023/03/10 01:21:40;;;;;;;18.37;11.07;;;0.60;99.90;;;;;;5019689;28;20037;-71
2023/03/10 01:24:07;;;;;;;20.17;11.40;;;0.60;99.90;;;;;;5022613;28;20037;-71
2023/03/10 01:26:32;;;;;;;22.85;11.95;;;0.60;99.90;;;;;;5037921;28;20048;-71
2023/03/10 01:28:58;;;;;;;21.57;12.03;;;0.60;99.90;;;;;;5011422;28;20039;-71
2023/03/10 01:31:24;;;;;;;22.75;11.77;;;0.60;99.90;;;;;;5007750;28;20044;-71
2023/03/10 01:33:50;;;;;;;22.03;12.70;;;0.70;99.90;;;;;;5022463;28;20260;-71
2023/03/10 01:36:19;;;;;;;26.07;13.77;;;0.60;99.90;;;;;;4994325;28;20648;-71
2023/03/10 01:38:46;;;;;;;24.30;13.07;;;0.60;99.90;;;;;;5013045;28;20052;-71
2023/03/10 01:41:12;;;;;;;21.92;11.90;;;0.60;99.90;;;;;;5036385;28;20464;-71
2023/03/10 01:43:43;;;;;;;21.70;11.88;;;0.60;99.90;;;;;;5011315;28;20045;-71
2023/03/10 01:46:32;;;;;;;22.83;12.63;;;0.60;99.90;;;;;;5004100;28;20041;-71
2023/03/10 01:49:02;;;;;;;25.70;13.10;;;0.60;99.90;;;;;;5031129;28;20397;-71
2023/03/10 01:51:31;;;;;;;25.77;12.93;;;0.60;99.90;;;;;;5019032;28;20041;-71
2023/03/10 01:53:57;;;;;;;22.90;12.82;;;0.60;99.90;;;;;;5033041;28;20041;-71
2023/03/10 01:56:23;;;;;;;28.65;14.85;;;0.50;99.90;;;;;;5037131;28;20045;-71
2023/03/10 01:58:48;;;;;;;27.10;14.50;;;0.50;99.90;;;;;;5031036;28;20512;-71
2023/03/10 02:01:16;;;;;;;30.47;15.87;;;0.50;99.90;;;;;;5021676;28;20067;-71
2023/03/10 02:03:57;;;;;;;33.05;16.92;;;0.50;99.90;;;;;;5037889;28;20873;-71
2023/03/10 02:06:23;;;;;;;30.60;16.10;;;0.50;99.90;;;;;;5016510;28;20041;-71
2023/03/10 02:08:56;;;;;;;28.58;15.38;;;0.50;99.90;;;;;;5020752;28;20110;-71
2023/03/10 02:11:22;;;;;;;28.08;14.85;;;0.50;99.90;;;;;;5036699;28;20571;-71
2023/03/10 02:13:48;;;;;;;24.30;13.27;;;0.50;99.90;;;;;;5017549;28;20057;-71
2023/03/10 02:16:15;;;;;;;23.07;12.27;;;0.50;99.90;;;;;;5033128;28;20049;-71
2023/03/10 02:18:44;;;;;;;22.40;11.85;;;0.50;99.90;;;;;;5004146;28;20068;-71
2023/03/10 02:21:34;;;;;;;19.98;11.00;;;0.50;99.90;;;;;;5016782;28;20390;-71
2023/03/10 02:24:20;;;;;;;23.30;11.75;;;0.50;99.90;;;;;;5025723;28;20504;-71
2023/03/10 02:26:58;;;;;;;22.52;12.07;;;0.50;99.90;;;;;;5030173;28;20120;-71
2023/03/10 02:29:36;;;;;;;22.63;11.68;;;0.50;99.90;;;;;;5029271;28;20045;-71
2023/03/10 02:32:03;;;;;;;20.77;11.32;;;0.40;99.90;;;;;;5031354;28;20382;-71
2023/03/10 02:34:29;;;;;;;20.58;11.35;;;0.40;99.90;;;;;;5022176;28;20472;-71
2023/03/10 02:36:55;;;;;;;20.05;10.35;;;0.40;99.90;;;;;;4994010;28;20478;-71
2023/03/10 02:39:21;;;;;;;20.38;10.88;;;0.40;99.90;;;;;;5025224;28;20056;-71
2023/03/10 02:41:47;;;;;;;20.60;11.17;;;0.40;99.90;;;;;;4997950;28;20045;-71
2023/03/10 02:44:17;;;;;;;24.13;10.97;;;0.30;99.90;;;;;;4992662;28;20044;-70
2023/03/10 02:46:43;;;;;;;20.85;11.07;;;0.30;99.90;;;;;;5023417;28;20053;-70
2023/03/10 02:49:09;;;;;;;21.13;11.43;;;0.30;99.90;;;;;;5025302;28;20045;-70
2023/03/10 02:51:40;;;;;;;21.65;11.35;;;0.30;99.90;;;;;;5023740;28;20041;-70
2023/03/10 02:54:07;;;;;;;21.15;10.98;;;0.30;99.90;;;;;;5010080;28;20033;-70
2023/03/10 02:56:34;;;;;;;20.55;10.00;;;0.30;99.90;;;;;;5004510;28;20119;-70
2023/03/10 02:59:00;;;;;;;21.20;11.48;;;0.30;99.90;;;;;;5015328;28;20053;-70
2023/03/10 03:01:28;;;;;;;19.85;11.13;;;0.30;99.90;;;;;;5023928;28;20091;-70
2023/03/10 03:03:55;;;;;;;19.70;10.35;;;0.30;99.90;;;;;;5019544;28;20087;-70
2023/03/10 03:06:21;;;;;;;20.25;10.65;;;0.30;99.90;;;;;;5035753;28;20388;-70
2023/03/10 03:08:47;;;;;;;20.98;10.52;;;0.30;99.90;;;;;;5015501;28;20041;-70
2023/03/10 03:11:13;;;;;;;21.55;10.50;;;0.30;99.90;;;;;;5015494;28;20037;-70
2023/03/10 03:13:39;;;;;;;21.75;10.52;;;0.30;99.90;;;;;;5034440;28;20053;-70
2023/03/10 03:16:07;;;;;;;22.73;11.02;;;0.30;99.90;;;;;;5036701;28;20037;-70
2023/03/10 03:18:33;;;;;;;22.23;11.07;;;0.30;99.90;;;;;;5042449;28;20041;-70
2023/03/10 03:21:04;;;;;;;21.83;11.13;;;0.30;99.90;;;;;;5021950;28;20123;-70
2023/03/10 03:23:30;;;;;;;22.10;11.27;;;0.20;99.90;;;;;;5028650;28;20046;-70
2023/03/10 03:25:56;;;;;;;21.40;11.27;;;0.20;99.90;;;;;;5001013;28;20052;-70
2023/03/10 03:28:21;;;;;;;22.97;11.57;;;0.30;99.90;;;;;;5007006;28;20041;-71
2023/03/10 03:30:47;;;;;;;20.90;11.67;;;0.30;99.90;;;;;;5020733;28;20096;-71
2023/03/10 03:33:13;;;;;;;22.53;11.07;;;0.30;99.90;;;;;;5019592;28;20034;-71
2023/03/10 03:35:39;;;;;;;22.57;11.33;;;0.30;99.90;;;;;;4986761;28;20529;-71
2023/03/10 03:38:05;;;;;;;20.53;11.10;;;0.30;99.90;;;;;;5039449;28;20057;-71
2023/03/10 03:40:34;;;;;;;21.23;10.38;;;0.30;99.90;;;;;;5007826;28;20280;-71
2023/03/10 03:43:00;;;;;;;19.35;10.82;;;0.30;99.90;;;;;;5028012;28;20049;-71
2023/03/10 03:45:28;;;;;;;21.50;10.90;;;0.30;99.90;;;;;;5040113;28;20074;-71
2023/03/10 03:47:53;;;;;;;24.23;11.93;;;0.30;99.90;;;;;;5033735;28;20137;-71
2023/03/10 03:50:20;;;;;;;23.50;12.17;;;0.30;99.90;;;;;;5028296;28;20632;-71
2023/03/10 03:52:46;;;;;;;23.23;11.60;;;0.30;99.90;;;;;;5033420;28;20187;-71
2023/03/10 03:55:14;;;;;;;24.35;11.75;;;0.30;99.90;;;;;;5010517;28;20493;-71
2023/03/10 03:57:41;;;;;;;25.50;12.32;;;0.20;99.90;;;;;;5016886;28;20052;-71
2023/03/10 04:00:11;;;;;;;22.10;11.32;;;0.20;99.90;;;;;;5022852;28;20049;-71
2023/03/10 04:02:36;;;;;;;24.60;11.95;;;0.20;99.90;;;;;;5039375;28;20405;-71
2023/03/10 04:05:03;;;;;;;26.67;12.60;;;0.30;99.90;;;;;;5022450;28;20052;-71
2023/03/10 04:07:29;;;;;;;23.58;11.73;;;0.20;99.90;;;;;;5029752;28;20103;-71
2023/03/10 04:09:56;;;;;;;25.88;12.40;;;0.20;99.90;;;;;;5015857;28;20078;-70
2023/03/10 04:12:22;;;;;;;25.92;12.27;;;0.20;99.90;;;;;;5027821;28;20049;-70
2023/03/10 04:14:48;;;;;;;28.10;12.93;;;0.20;99.90;;;;;;4997687;28;20049;-70
2023/03/10 04:17:13;;;;;;;30.27;13.97;;;0.30;99.90;;;;;;5035516;28;20049;-70
2023/03/10 04:19:39;;;;;;;30.00;14.40;;;0.20;99.90;;;;;;5028517;28;20076;-70
2023/03/10 04:22:05;;;;;;;31.50;14.40;;;0.10;99.90;;;;;;5037435;28;20077;-70
2023/03/10 04:24:30;;;;;;;30.47;15.20;;;0.10;99.90;;;;;;5013184;28;20041;-71
2023/03/10 04:26:56;;;;;;;32.43;14.03;;;0.00;99.90;;;;;;5032436;28;20139;-71
2023/03/10 04:29:23;;;;;;;26.47;13.50;;;0.00;99.90;;;;;;5006931;28;20380;-71
2023/03/10 04:31:50;;;;;;;29.30;13.82;;;0.00;99.90;;;;;;5019937;28;20042;-71
2023/03/10 04:34:16;;;;;;;36.38;15.65;;;-0.10;99.90;;;;;;5009984;28;20120;-71
2023/03/10 04:36:42;;;;;;;30.88;14.45;;;0.00;99.90;;;;;;5001982;28;20037;-71
2023/03/10 04:39:08;;;;;;;29.47;14.83;;;-0.10;99.90;;;;;;5027134;28;20501;-71
2023/03/10 04:41:35;;;;;;;36.45;14.38;;;-0.10;99.90;;;;;;4990394;28;20056;-71
2023/03/10 04:44:02;;;;;;;33.78;15.40;;;-0.10;99.90;;;;;;4998588;28;20045;-71
2023/03/10 04:46:30;;;;;;;37.55;15.95;;;-0.10;99.90;;;;;;5018494;28;20041;-71
2023/03/10 04:48:56;;;;;;;40.00;16.13;;;-0.20;99.90;;;;;;5009114;28;20543;-71
2023/03/10 04:51:23;;;;;;;38.75;15.43;;;-0.20;99.90;;;;;;5020846;28;20108;-71
2023/03/10 04:53:49;;;;;;;34.70;15.90;;;-0.20;99.90;;;;;;5003089;28;20072;-71
2023/03/10 04:56:15;;;;;;;38.08;16.33;;;-0.20;99.90;;;;;;5020667;28;20535;-71
2023/03/10 04:58:41;;;;;;;39.40;16.10;;;-0.20;99.90;;;;;;5029462;28;20059;-71
2023/03/10 05:01:13;;;;;;;39.50;14.90;;;-0.20;99.90;;;;;;5029718;28;20052;-71
2023/03/10 05:03:38;;;;;;;56.10;18.63;;;-0.30;99.90;;;;;;5029785;28;20107;-71
2023/03/10 05:06:09;;;;;;;40.20;16.53;;;-0.30;99.90;;;;;;5043994;28;20053;-71
2023/03/10 05:08:36;;;;;;;37.22;15.88;;;-0.30;99.90;;;;;;5013751;28;20048;-71
2023/03/10 05:11:05;;;;;;;40.30;17.38;;;-0.30;99.90;;;;;;5011173;28;20087;-71
2023/03/10 05:13:32;;;;;;;35.97;15.63;;;-0.30;99.90;;;;;;5018749;28;20105;-71
2023/03/10 05:15:58;;;;;;;39.05;15.65;;;-0.30;99.90;;;;;;5031614;28;20088;-71
2023/03/10 05:18:23;;;;;;;34.77;15.43;;;-0.20;99.90;;;;;;5031039;28;20120;-71
2023/03/10 05:20:54;;;;;;;38.87;16.40;;;-0.20;99.90;;;;;;5011902;28;20049;-71
2023/03/10 05:23:20;;;;;;;43.10;16.95;;;-0.20;99.90;;;;;;5011899;28;20037;-71
2023/03/10 05:25:47;;;;;;;39.95;16.58;;;-0.20;99.90;;;;;;5030556;28;20085;-71
2023/03/10 05:28:12;;;;;;;40.53;17.23;;;-0.30;99.90;;;;;;4999636;28;20503;-71
2023/03/10 05:30:38;;;;;;;42.97;17.43;;;-0.30;99.90;;;;;;5036093;28;20037;-71
2023/03/10 05:33:04;;;;;;;45.33;18.07;;;-0.30;99.90;;;;;;5037213;28;20505;-71
2023/03/10 05:35:29;;;;;;;46.63;18.67;;;-0.30;99.90;;;;;;4986991;28;20152;-71
2023/03/10 05:37:55;;;;;;;46.93;19.10;;;-0.30;99.90;;;;;;5006002;28;20410;-71
2023/03/10 05:40:21;;;;;;;55.03;20.87;;;-0.20;99.90;;;;;;5019761;28;20459;-71
2023/03/10 05:42:48;;;;;;;54.97;20.60;;;-0.30;99.90;;;;;;4999144;28;20041;-71
2023/03/10 05:45:15;;;;;;;59.42;21.02;;;-0.30;99.90;;;;;;5012586;28;20083;-71
2023/03/10 05:47:42;;;;;;;56.78;20.33;;;-0.30;99.90;;;;;;5007728;28;20116;-71
2023/03/10 05:50:09;;;;;;;63.13;22.70;;;-0.30;99.90;;;;;;5020808;28;20037;-71
2023/03/10 05:52:37;;;;;;;59.90;22.90;;;-0.30;99.90;;;;;;5015012;28;20045;-71
2023/03/10 05:55:05;;;;;;;65.53;23.20;;;-0.30;99.90;;;;;;5032825;28;20084;-71
2023/03/10 05:57:31;;;;;;;61.15;23.08;;;-0.30;99.90;;;;;;5016497;28;20045;-72
2023/03/10 05:59:57;;;;;;;70.60;24.30;;;-0.30;99.90;;;;;;5023778;28;20072;-73
2023/03/10 06:02:24;;;;;;;66.73;24.77;;;-0.30;99.90;;;;;;5014821;28;20041;-73
2023/03/10 06:04:49;;;;;;;64.72;23.02;;;-0.30;99.90;;;;;;5029408;28;20045;-73
2023/03/10 06:07:15;;;;;;;71.70;23.90;;;-0.30;99.90;;;;;;5033078;28;20496;-72
2023/03/10 06:09:41;;;;;;;63.63;24.53;;;-0.20;99.90;;;;;;5045525;28;20120;-73
2023/03/10 06:12:06;;;;;;;70.43;25.43;;;-0.20;99.90;;;;;;5035268;28;20049;-72
2023/03/10 06:14:32;;;;;;;72.07;26.47;;;-0.20;99.90;;;;;;5022279;28;20045;-72
2023/03/10 06:16:58;;;;;;;66.13;24.43;;;-0.20;99.90;;;;;;5032022;28;20041;-72
2023/03/10 06:19:26;;;;;;;72.07;25.87;;;-0.20;99.90;;;;;;5038524;28;20077;-72
2023/03/10 06:21:54;;;;;;;64.90;24.10;;;-0.20;99.90;;;;;;5044269;28;20496;-72
2023/03/10 06:24:20;;;;;;;64.37;25.03;;;-0.20;99.90;;;;;;5020080;28;20109;-72
2023/03/10 06:26:46;;;;;;;67.13;24.33;;;-0.20;99.90;;;;;;5042073;28;20037;-71
2023/03/10 06:29:19;;;;;;;56.78;23.10;;;-0.20;99.90;;;;;;5051336;28;20041;-72
2023/03/10 06:31:48;;;;;;;61.97;24.05;;;-0.10;99.90;;;;;;4997534;28;20394;-72
2023/03/10 06:34:14;;;;;;;59.15;22.55;;;-0.10;99.90;;;;;;5014132;28;20374;-72
2023/03/10 06:36:40;;;;;;;56.83;22.45;;;-0.10;99.90;;;;;;5007612;28;20042;-72
2023/03/10 06:39:10;;;;;;;57.92;21.52;;;-0.10;99.90;;;;;;5048690;28;20037;-72
2023/03/10 06:41:37;;;;;;;55.78;21.42;;;0.00;99.90;;;;;;5020758;28;20037;-73
2023/03/10 06:44:03;;;;;;;49.63;19.55;;;0.00;99.90;;;;;;5012734;28;20041;-72
2023/03/10 06:46:29;;;;;;;49.28;19.38;;;0.00;99.90;;;;;;5017256;28;20094;-72
2023/03/10 06:48:55;;;;;;;45.80;19.05;;;0.10;99.90;;;;;;5024298;28;20060;-73
2023/03/10 06:51:23;;;;;;;44.90;18.98;;;0.10;99.90;;;;;;5009492;28;20043;-73
2023/03/10 06:53:49;;;;;;;40.27;17.70;;;0.10;99.90;;;;;;5051339;28;20045;-72
2023/03/10 06:56:18;;;;;;;42.00;17.87;;;0.20;99.90;;;;;;5017108;28;20099;-73
2023/03/10 06:58:44;;;;;;;43.72;18.08;;;0.20;99.90;;;;;;5031403;28;20071;-73
2023/03/10 07:01:28;;;;;;;40.15;15.95;;;0.20;99.90;;;;;;5025117;28;20049;-73
2023/03/10 07:03:54;;;;;;;40.55;17.02;;;0.20;99.90;;;;;;5035899;28;20116;-73
2023/03/10 07:06:20;;;;;;;37.67;16.58;;;0.20;99.90;;;;;;5047380;28;20037;-74
2023/03/10 07:08:46;;;;;;;36.30;14.80;;;0.20;99.90;;;;;;5015620;28;20033;-73
2023/03/10 07:11:12;;;;;;;34.97;15.63;;;0.30;99.90;;;;;;5028882;28;20562;-73
2023/03/10 07:13:38;;;;;;;32.13;14.97;;;0.30;99.90;;;;;;5015677;28;20054;-73
2023/03/10 07:16:04;;;;;;;33.00;14.57;;;0.30;99.90;;;;;;5033981;28;20049;-73
2023/03/10 07:18:30;;;;;;;34.78;15.32;;;0.30;99.90;;;;;;5017872;28;20131;-73
2023/03/10 07:20:56;;;;;;;33.83;15.87;;;0.40;99.90;;;;;;5038022;28;20036;-73
2023/03/10 07:23:22;;;;;;;31.00;14.80;;;0.30;99.90;;;;;;5037279;28;20047;-73
2023/03/10 07:25:53;;;;;;;34.10;14.43;;;0.30;99.90;;;;;;5028769;28;20036;-73
2023/03/10 07:28:19;;;;;;;32.47;15.35;;;0.30;99.90;;;;;;5023691;28;20040;-73
2023/03/10 07:30:45;;;;;;;32.90;15.00;;;0.30;99.90;;;;;;5022977;28;20049;-73
2023/03/10 07:33:11;;;;;;;30.37;14.77;;;0.30;99.90;;;;;;5033944;28;20053;-73
2023/03/10 07:35:37;;;;;;;34.37;15.23;;;0.30;99.90;;;;;;5025090;28;20049;-74
2023/03/10 07:38:03;;;;;;;36.85;16.80;;;0.20;99.90;;;;;;5027435;28;20051;-73
2023/03/10 07:40:35;;;;;;;41.47;16.50;;;0.30;99.90;;;;;;5027972;28;20440;-75
2023/03/10 07:43:02;;;;;;;35.53;16.00;;;0.30;99.90;;;;;;5009389;28;20045;-74
2023/03/10 07:45:29;;;;;;;34.55;16.00;;;0.30;99.90;;;;;;5011347;28;20033;-74
2023/03/10 07:47:55;;;;;;;37.83;16.48;;;0.30;99.90;;;;;;5024823;28;20044;-74
2023/03/10 07:50:22;;;;;;;38.07;16.77;;;0.30;99.90;;;;;;5008051;28;20063;-74
2023/03/10 07:52:48;;;;;;;37.65;16.90;;;0.40;99.90;;;;;;5019859;28;20068;-74
2023/03/10 07:55:16;;;;;;;34.60;16.95;;;0.40;99.90;;;;;;5018658;28;20068;-73
2023/03/10 07:57:42;;;;;;;36.58;16.17;;;0.30;99.90;;;;;;5018180;28;20105;-75
2023/03/10 08:00:10;;;;;;;36.38;15.82;;;0.40;99.90;;;;;;5034348;28;20041;-75
2023/03/10 08:02:39;;;;;;;32.47;15.05;;;0.40;99.90;;;;;;5031012;28;20052;-76
2023/03/10 08:05:06;;;;;;;32.83;15.45;;;0.40;99.90;;;;;;5036834;28;20044;-74
2023/03/10 08:07:32;;;;;;;32.47;15.38;;;0.50;99.90;;;;;;5025676;28;20044;-74
2023/03/10 08:09:57;;;;;;;31.83;15.63;;;0.50;99.90;;;;;;5031512;28;20828;-74
2023/03/10 08:12:29;;;;;;;32.77;16.23;;;0.50;99.90;;;;;;5043796;28;20104;-74
2023/03/10 08:14:55;;;;;;;29.38;14.98;;;0.50;99.90;;;;;;5016936;28;20037;-75
2023/03/10 08:17:22;;;;;;;29.03;14.33;;;0.50;99.90;;;;;;5038913;28;20052;-75
2023/03/10 08:19:47;;;;;;;24.88;13.02;;;0.50;99.90;;;;;;5045969;28;20060;-75
2023/03/10 08:22:15;;;;;;;27.57;13.80;;;0.50;99.90;;;;;;5005954;28;20042;-75
2023/03/10 08:24:40;;;;;;;24.67;12.70;;;0.60;99.90;;;;;;5027748;28;20060;-75
2023/03/10 08:27:06;;;;;;;27.57;13.60;;;0.50;99.90;;;;;;5039690;28;20048;-75
2023/03/10 08:29:32;;;;;;;26.93;13.40;;;0.50;99.90;;;;;;5044751;28;20481;-75
2023/03/10 08:31:58;;;;;;;29.60;14.23;;;0.50;99.90;;;;;;4996410;28;20044;-76
2023/03/10 08:34:24;;;;;;;26.67;12.77;;;0.50;99.90;;;;;;5030956;28;20037;-75
2023/03/10 08:36:49;;;;;;;29.10;12.90;;;0.50;99.90;;;;;;5034154;28;20123;-75
2023/03/10 08:39:15;;;;;;;28.27;13.20;;;0.60;99.90;;;;;;5050263;28;20085;-75
2023/03/10 08:41:47;;;;;;;27.90;13.73;;;0.60;99.90;;;;;;5047489;28;20041;-75
2023/03/10 08:44:14;;;;;;;28.15;13.38;;;0.60;99.90;;;;;;5023756;28;20481;-76
2023/03/10 08:46:46;;;;;;;29.60;14.10;;;0.60;99.90;;;;;;5048764;28;20100;-75
2023/03/10 08:49:13;;;;;;;29.15;13.98;;;0.60;99.90;;;;;;5028072;28;20076;-76
2023/03/10 08:51:40;;;;;;;31.10;15.18;;;0.50;99.90;;;;;;5050143;28;20044;-76
2023/03/10 08:54:06;;;;;;;30.35;15.00;;;0.50;99.90;;;;;;5027109;28;20052;-76
2023/03/10 08:56:32;;;;;;;32.95;15.68;;;0.50;99.90;;;;;;5041018;28;20045;-76
2023/03/10 08:58:59;;;;;;;32.80;15.33;;;0.50;99.90;;;;;;5005507;28;20478;-75
2023/03/10 09:01:27;;;;;;;28.23;14.13;;;0.50;99.90;;;;;;5036566;28;20044;-75
2023/03/10 09:03:53;;;;;;;29.40;14.32;;;0.50;99.90;;;;;;5035362;28;20080;-75
2023/03/10 09:06:20;;;;;;;29.17;13.47;;;0.50;99.90;;;;;;5031186;28;20041;-75
2023/03/10 09:08:49;;;;;;;32.30;15.35;;;0.60;99.90;;;;;;5042007;28;20029;-75
2023/03/10 09:11:18;;;;;;;29.63;14.05;;;0.60;99.90;;;;;;5045666;28;20521;-75
2023/03/10 09:13:44;;;;;;;29.42;14.80;;;0.60;99.90;;;;;;5036775;28;20580;-75
2023/03/10 09:16:12;;;;;;;30.25;15.18;;;0.60;99.90;;;;;;5044009;28;20053;-75
2023/03/10 09:18:38;;;;;;;31.08;15.98;;;0.70;99.90;;;;;;5022078;28;20045;-75
2023/03/10 09:21:04;;;;;;;32.22;15.23;;;0.70;99.90;;;;;;5040915;28;20077;-75
2023/03/10 09:23:30;;;;;;;34.15;16.20;;;0.60;99.90;;;;;;5039057;28;20585;-75
2023/03/10 09:25:56;;;;;;;31.43;15.43;;;0.60;99.90;;;;;;5039673;28;20057;-75
2023/03/10 09:28:21;;;;;;;29.37;15.40;;;0.60;99.90;;;;;;5032280;28;20068;-74
2023/03/10 09:30:47;;;;;;;31.07;15.00;;;0.60;99.90;;;;;;5033826;28;20033;-74
2023/03/10 09:33:18;;;;;;;30.13;14.90;;;0.70;99.90;;;;;;5024113;28;20076;-75
2023/03/10 09:35:50;;;;;;;33.05;16.38;;;0.60;99.90;;;;;;5017702;28;20077;-74
2023/03/10 09:38:17;;;;;;;30.42;15.02;;;0.60;99.90;;;;;;5050118;28;20056;-74
2023/03/10 09:41:01;;;;;;;29.17;15.68;;;0.70;99.90;;;;;;5037761;28;20056;-74
2023/03/10 09:43:31;;;;;;;31.40;15.68;;;0.60;99.90;;;;;;5033678;28;20045;-75
2023/03/10 09:46:06;;;;;;;29.80;15.35;;;0.60;99.90;;;;;;5024935;28;20080;-75
2023/03/10 09:48:44;;;;;;;33.15;16.08;;;0.70;99.90;;;;;;5019280;28;20029;-74
2023/03/10 09:51:24;;;;;;;28.00;15.10;;;0.70;99.90;;;;;;5041619;28;20045;-75
2023/03/10 09:54:19;;;;;;;29.02;13.68;;;0.70;99.90;;;;;;5042792;28;20061;-74
2023/03/10 09:56:44;;;;;;;27.38;13.45;;;0.70;99.90;;;;;;5014977;28;20055;-74
2023/03/10 09:59:32;;;;;;;28.33;13.50;;;0.60;99.90;;;;;;5024891;28;20045;-74
2023/03/10 10:02:00;;;;;;;27.50;12.98;;;0.70;99.90;;;;;;5015284;28;20037;-74
2023/03/10 10:04:34;;;;;;;25.52;12.70;;;0.70;99.90;;;;;;5035943;28;20377;-74
2023/03/10 10:07:01;;;;;;;22.17;11.07;;;0.70;99.90;;;;;;5060062;28;20121;-74
2023/03/10 10:09:41;;;;;;;24.95;13.10;;;0.70;99.90;;;;;;5019904;28;20048;-74
2023/03/10 10:12:12;;;;;;;26.60;12.32;;;0.80;99.90;;;;;;5049380;28;20254;-74
2023/03/10 10:14:38;;;;;;;22.00;11.32;;;0.80;99.90;;;;;;5016779;28;20053;-74
2023/03/10 10:17:41;;;;;;;27.65;12.40;;;0.80;99.90;;;;;;5029764;28;20111;-74
2023/03/10 10:20:32;;;;;;;27.13;11.80;;;0.70;99.90;;;;;;5015225;28;20060;-74
2023/03/10 10:22:57;;;;;;;26.00;13.88;;;0.70;99.90;;;;;;5010219;28;20036;-74
2023/03/10 10:25:24;;;;;;;27.50;13.80;;;0.70;99.90;;;;;;5041236;28;20070;-74
2023/03/10 10:27:52;;;;;;;25.27;13.00;;;0.60;99.90;;;;;;5024239;28;20400;-74
2023/03/10 10:30:32;;;;;;;29.58;14.60;;;0.60;99.90;;;;;;5051315;28;20508;-74
2023/03/10 10:33:06;;;;;;;26.63;15.10;;;0.60;99.90;;;;;;5015739;28;20103;-73
2023/03/10 10:35:35;;;;;;;29.10;15.18;;;0.60;99.90;;;;;;5020328;28;20034;-73
2023/03/10 10:38:05;;;;;;;29.30;14.18;;;0.60;99.90;;;;;;5020234;28;20561;-74
2023/03/10 10:40:33;;;;;;;30.20;14.40;;;0.60;99.90;;;;;;5000982;28;20053;-74
2023/03/10 10:43:04;;;;;;;27.20;14.07;;;0.60;99.90;;;;;;5011913;28;20097;-74
2023/03/10 10:45:38;;;;;;;26.85;13.63;;;0.60;99.90;;;;;;5040983;28;20721;-74
2023/03/10 10:48:04;;;;;;;25.95;13.10;;;0.60;99.90;;;;;;5034263;28;20040;-74
2023/03/10 10:50:36;;;;;;;30.42;13.63;;;0.60;99.90;;;;;;5030409;28;20041;-73
2023/03/10 10:53:23;;;;;;;25.95;13.13;;;0.70;99.90;;;;;;5026661;28;20095;-74
2023/03/10 10:56:01;;;;;;;30.13;14.80;;;0.80;99.90;;;;;;5030399;28;20041;-74
2023/03/10 10:58:36;;;;;;;29.30;15.50;;;0.80;99.90;;;;;;5028093;28;20052;-75
2023/03/10 11:01:12;;;;;;;33.70;15.85;;;0.90;99.90;;;;;;5031941;28;20049;-74
2023/03/10 11:03:43;;;;;;;32.78;16.90;;;1.00;99.90;;;;;;5050940;28;20035;-74
2023/03/10 11:06:30;;;;;;;38.47;17.23;;;1.00;99.90;;;;;;5031641;28;20037;-74
2023/03/10 11:09:11;;;;;;;31.42;16.98;;;1.00;99.90;;;;;;5008650;28;20073;-74
2023/03/10 11:12:07;;;;;;;33.25;17.08;;;1.00;99.90;;;;;;5035640;28;20096;-74
2023/03/10 11:14:35;;;;;;;;;;;1.20;99.90;;;;;;5046722;28;20484;-74
2023/03/10 11:17:13;;;;;;;35.35;17.40;;;1.20;99.90;;;;;;5025585;28;19923;-74
2023/03/10 11:20:05;;;;;;;32.60;17.25;;;1.30;99.90;;;;;;5046730;28;20102;-74
2023/03/10 11:22:58;;;;;;;34.35;18.02;;;1.40;99.90;;;;;;5032323;28;20045;-74
2023/03/10 11:25:58;;;;;;;30.67;16.73;;;1.50;99.90;;;;;;5043286;28;20064;-74
2023/03/10 11:28:30;;;;;;;36.03;17.50;;;1.50;99.90;;;;;;5025616;28;20382;-74
2023/03/10 11:31:18;;;;;;;32.97;17.85;;;1.40;99.90;;;;;;5033933;28;20501;-74
2023/03/10 11:33:47;;;;;;;34.17;17.25;;;1.30;99.90;;;;;;5047421;28;20049;-74
2023/03/10 11:36:43;;;;;;;34.22;17.55;;;1.30;99.90;;;;;;5044554;28;20051;-74
2023/03/10 11:39:47;;;;;;;36.72;18.45;;;1.20;99.90;;;;;;5056418;28;20049;-73
2023/03/10 11:42:35;;;;;;;38.80;20.27;;;1.10;99.90;;;;;;5031309;28;20054;-73
2023/03/10 11:45:24;;;;;;;36.15;17.67;;;1.10;99.90;;;;;;5043303;28;20462;-74
2023/03/10 11:47:57;;;;;;;38.30;18.85;;;1.00;99.90;;;;;;5010342;28;20045;-73
2023/03/10 11:50:51;;;;;;;36.28;18.35;;;1.00;99.90;;;;;;5051272;28;20049;-74
2023/03/10 11:53:39;;;;;;;32.35;16.65;;;1.00;99.90;;;;;;5045164;28;20044;-73
2023/03/10 11:56:09;;;;;;;33.13;17.60;;;1.00;99.90;;;;;;5044006;28;20124;-74
2023/03/10 11:58:52;;;;;;;33.53;16.80;;;1.00;99.90;;;;;;5050277;28;20500;-74
2023/03/10 12:01:39;;;;;;;34.03;17.52;;;1.10;99.90;;;;;;5042228;28;20065;-73
2023/03/10 12:04:39;;;;;;;35.38;17.33;;;1.10;99.90;;;;;;5045959;28;20483;-73
2023/03/10 12:07:27;;;;;;;37.03;17.70;;;1.10;99.90;;;;;;5049096;28;20076;-74
2023/03/10 12:09:56;;;;;;;32.20;17.15;;;1.10;99.90;;;;;;5048291;28;20044;-74
2023/03/10 12:12:30;;;;;;;35.80;17.73;;;1.10;99.90;;;;;;5045048;28;20116;-73
2023/03/10 12:14:59;;;;;;;30.95;16.77;;;1.20;99.90;;;;;;5038768;28;20068;-74
2023/03/10 12:17:25;;;;;;;35.97;19.02;;;1.20;99.90;;;;;;5054188;28;20075;-73
2023/03/10 12:20:26;;;;;;;33.17;16.13;;;1.30;99.90;;;;;;5049429;28;20052;-74
2023/03/10 12:23:10;;;;;;;28.55;13.23;;;1.30;99.90;;;;;;5026177;28;20050;-73
2023/03/10 12:25:42;;;;;;;29.17;13.27;;;1.30;99.90;;;;;;5047067;28;20037;-74
2023/03/10 12:28:18;;;;;;;29.73;14.60;;;1.30;99.90;;;;;;5045016;28;20150;-73
2023/03/10 12:31:00;;;;;;;28.83;14.93;;;1.30;99.90;;;;;;5054687;28;20041;-73
2023/03/10 12:33:38;;;;;;;29.58;14.45;;;1.30;99.90;;;;;;5023627;28;20045;-74
2023/03/10 12:36:32;;;;;;;28.67;14.32;;;1.30;99.90;;;;;;5043825;28;20108;-74
2023/03/10 12:38:57;;;;;;;35.90;16.42;;;1.30;99.90;;;;;;5024925;28;20578;-74
2023/03/10 12:41:26;;;;;;;33.30;14.77;;;1.30;99.90;;;;;;5048489;28;20072;-74
2023/03/10 12:43:54;;;;;;;31.77;15.10;;;1.30;99.90;;;;;;5042355;28;20045;-74
2023/03/10 12:46:39;;;;;;;31.33;15.02;;;1.30;99.90;;;;;;5020829;28;20124;-74
2023/03/10 12:49:23;;;;;;;32.42;14.52;;;1.20;99.90;;;;;;5030694;28;20033;-74